Time;durP1;ratioP1;P1;durP2;ratioP2;P2;SDS_P1;SDS_P2;PMS_P1;PMS_P2;Temp;Humidity;BMP_temperature;BMP_pressure;BME280_temperature;BME280_humidity;BME280_pressure;Samples;Min_cycle;Max_cycle;Signal;HPM_P1;HPM_P2
2023/08/15 00:00:43;;;;;;;0.30;0.30;;;16.60;99.90;;;;;;5033408;28;20441;-80
2023/08/15 00:03:10;;;;;;;0.10;0.10;;;16.50;99.90;;;;;;5049134;28;20128;-79
2023/08/15 00:05:37;;;;;;;0.60;0.25;;;16.50;99.90;;;;;;5067181;28;20123;-80
2023/08/15 00:08:04;;;;;;;0.75;0.45;;;16.50;99.90;;;;;;5066600;28;20052;-80
2023/08/15 00:10:31;;;;;;;0.65;0.20;;;16.40;99.90;;;;;;5049266;28;20461;-80
2023/08/15 00:12:58;;;;;;;0.45;0.30;;;16.40;99.90;;;;;;5030199;28;20564;-80
2023/08/15 00:15:24;;;;;;;0.85;0.50;;;16.30;99.90;;;;;;5065469;28;20506;-80
2023/08/15 00:17:51;;;;;;;0.65;0.35;;;16.30;99.90;;;;;;5064811;28;20082;-80
2023/08/15 00:20:18;;;;;;;0.20;0.20;;;16.30;99.90;;;;;;5065838;28;20135;-80
2023/08/15 00:22:45;;;;;;;0.30;0.30;;;16.30;99.90;;;;;;5098649;28;20105;-78
2023/08/15 00:25:11;;;;;;;0.57;0.40;;;16.30;99.90;;;;;;5078505;28;20092;-80
2023/08/15 00:27:38;;;;;;;0.50;0.38;;;16.30;99.90;;;;;;5060511;28;20056;-80
2023/08/15 00:30:05;;;;;;;0.55;0.35;;;16.20;99.90;;;;;;5047395;28;20052;-80
2023/08/15 00:32:35;;;;;;;1.05;0.40;;;16.20;99.90;;;;;;5065077;28;20060;-80
2023/08/15 00:35:05;;;;;;;0.20;0.20;;;16.20;99.90;;;;;;5064653;28;20106;-80
2023/08/15 00:37:32;;;;;;;0.50;0.30;;;16.10;99.90;;;;;;5063951;28;20533;-80
2023/08/15 00:39:59;;;;;;;0.25;0.22;;;16.00;99.90;;;;;;5064789;28;20052;-80
2023/08/15 00:42:26;;;;;;;0.88;0.43;;;16.00;99.90;;;;;;5063550;28;20052;-80
2023/08/15 00:44:53;;;;;;;0.40;0.28;;;15.90;99.90;;;;;;5065064;28;20053;-79
2023/08/15 00:47:20;;;;;;;0.25;0.20;;;15.90;99.90;;;;;;5064547;28;20100;-81
2023/08/15 00:49:47;;;;;;;0.40;0.30;;;15.90;99.90;;;;;;5047729;28;20110;-80
2023/08/15 00:52:15;;;;;;;0.40;0.30;;;15.80;1.00;;;;;;5062853;28;20056;-80
2023/08/15 00:54:46;;;;;;;0.50;0.40;;;15.80;1.00;;;;;;5025447;28;20133;-80
2023/08/15 00:57:13;;;;;;;0.40;0.38;;;15.80;1.00;;;;;;5058887;28;20502;-78
2023/08/15 00:59:41;;;;;;;0.60;0.30;;;15.70;1.00;;;;;;5055755;28;20460;-79
2023/08/15 01:02:08;;;;;;;1.17;0.30;;;15.70;99.90;;;;;;5073778;28;20132;-80
2023/08/15 01:04:36;;;;;;;0.20;0.15;;;15.70;1.00;;;;;;5061827;28;20052;-80
2023/08/15 01:07:02;;;;;;;0.20;0.20;;;15.60;1.00;;;;;;5027921;28;20045;-79
2023/08/15 01:09:29;;;;;;;0.22;0.22;;;15.60;1.00;;;;;;5065311;28;20040;-80
2023/08/15 01:12:08;;;;;;;0.30;0.25;;;15.50;1.00;;;;;;5062337;28;20052;-79
2023/08/15 01:14:40;;;;;;;0.80;0.32;;;15.50;1.00;;;;;;5066170;28;20090;-79
2023/08/15 01:17:06;;;;;;;0.30;0.30;;;15.40;1.00;;;;;;5063941;28;20158;-80
2023/08/15 01:19:38;;;;;;;0.63;0.30;;;15.40;1.00;;;;;;5048327;28;20052;-80
2023/08/15 01:22:15;;;;;;;0.52;0.43;;;15.40;1.00;;;;;;5063632;28;20087;-79
2023/08/15 01:24:45;;;;;;;0.55;0.30;;;15.30;1.00;;;;;;5048983;28;20056;-80
2023/08/15 01:27:12;;;;;;;0.25;0.20;;;15.30;1.00;;;;;;5046571;28;20063;-79
2023/08/15 01:29:39;;;;;;;0.20;0.20;;;15.30;1.00;;;;;;5066085;28;20114;-79
2023/08/15 01:32:30;;;;;;;0.20;0.20;;;15.20;1.00;;;;;;5029148;28;20051;-79
2023/08/15 01:35:05;;;;;;;0.20;0.20;;;15.20;1.00;;;;;;5066289;28;20143;-80
2023/08/15 01:37:32;;;;;;;0.28;0.22;;;15.10;1.00;;;;;;5078956;28;20045;-79
2023/08/15 01:40:00;;;;;;;0.47;0.30;;;15.10;1.00;;;;;;5062367;28;20056;-79
2023/08/15 01:42:27;;;;;;;0.32;0.20;;;15.00;1.00;;;;;;5072440;28;20050;-80
2023/08/15 01:44:54;;;;;;;0.45;0.45;;;15.00;1.00;;;;;;5066127;28;20052;-80
2023/08/15 01:47:22;;;;;;;0.47;0.30;;;15.00;1.00;;;;;;5078933;28;20041;-79
2023/08/15 01:49:48;;;;;;;0.38;0.30;;;14.90;1.00;;;;;;5065001;28;20106;-79
2023/08/15 01:52:15;;;;;;;0.35;0.20;;;14.80;1.00;;;;;;5063936;28;20207;-79
2023/08/15 01:54:42;;;;;;;0.40;0.20;;;14.80;99.90;;;;;;5065586;28;20075;-81
2023/08/15 01:57:09;;;;;;;0.70;0.28;;;14.70;99.90;;;;;;5045681;28;20048;-81
2023/08/15 01:59:35;;;;;;;0.30;0.30;;;14.70;1.00;;;;;;5098270;28;20044;-82
2023/08/15 02:02:06;;;;;;;0.20;0.20;;;14.60;1.00;;;;;;5064915;28;20052;-82
2023/08/15 02:04:33;;;;;;;0.20;0.20;;;14.70;1.00;;;;;;5065662;28;20052;-82
2023/08/15 02:06:59;;;;;;;0.38;0.38;;;14.70;1.00;;;;;;5063298;28;20126;-81
2023/08/15 02:09:27;;;;;;;0.40;0.40;;;14.60;1.00;;;;;;5065628;28;20052;-80
2023/08/15 02:11:53;;;;;;;0.50;0.32;;;14.60;1.00;;;;;;5062093;28;20724;-80
2023/08/15 02:14:20;;;;;;;0.25;0.25;;;14.60;1.00;;;;;;5081527;28;20076;-81
2023/08/15 02:16:47;;;;;;;0.50;0.35;;;14.50;1.00;;;;;;5063349;28;20126;-81
2023/08/15 02:19:14;;;;;;;0.80;0.20;;;14.50;1.00;;;;;;5064421;28;20053;-81
2023/08/15 02:21:40;;;;;;;0.30;0.20;;;14.40;1.00;;;;;;5046069;28;20044;-82
2023/08/15 02:24:07;;;;;;;1.00;0.40;;;14.40;1.00;;;;;;5046653;28;20047;-82
2023/08/15 02:26:35;;;;;;;0.28;0.28;;;14.30;1.00;;;;;;5028197;28;20414;-81
2023/08/15 02:29:03;;;;;;;0.70;0.47;;;14.30;1.00;;;;;;5063775;28;20693;-82
2023/08/15 02:31:30;;;;;;;0.65;0.47;;;14.30;1.00;;;;;;5046930;28;20053;-81
2023/08/15 02:33:57;;;;;;;0.30;0.30;;;14.30;1.00;;;;;;5080056;28;20064;-81
2023/08/15 02:36:24;;;;;;;0.50;0.28;;;14.30;1.00;;;;;;5062187;28;20072;-81
2023/08/15 02:38:50;;;;;;;0.13;0.13;;;14.30;1.00;;;;;;5062709;28;20094;-81
2023/08/15 02:41:17;;;;;;;0.30;0.30;;;14.30;1.00;;;;;;5047213;28;20169;-81
2023/08/15 02:43:44;;;;;;;0.52;0.30;;;14.30;1.00;;;;;;5068320;28;20045;-81
2023/08/15 02:46:11;;;;;;;0.43;0.30;;;14.30;1.00;;;;;;5067145;28;20052;-80
2023/08/15 02:48:37;;;;;;;0.30;0.20;;;14.30;1.00;;;;;;5051747;28;20044;-81
2023/08/15 02:51:07;;;;;;;1.23;0.30;;;14.30;1.00;;;;;;5068840;28;20045;-81
2023/08/15 02:53:36;;;;;;;0.65;0.38;;;14.30;1.00;;;;;;5069340;28;20049;-81
2023/08/15 02:56:02;;;;;;;0.52;0.38;;;14.20;1.00;;;;;;5065909;28;20163;-80
2023/08/15 02:58:29;;;;;;;0.65;0.30;;;14.20;1.00;;;;;;5069419;28;20048;-80
2023/08/15 03:00:56;;;;;;;0.30;0.30;;;14.20;1.00;;;;;;5067251;28;20131;-81
2023/08/15 03:03:23;;;;;;;0.20;0.20;;;14.20;1.00;;;;;;5051244;28;20045;-79
2023/08/15 03:05:49;;;;;;;0.45;0.30;;;14.20;1.00;;;;;;5066415;28;20045;-80
2023/08/15 03:08:16;;;;;;;0.43;0.38;;;14.10;1.00;;;;;;5066845;28;20048;-80
2023/08/15 03:10:43;;;;;;;0.38;0.28;;;14.10;1.00;;;;;;5067104;28;20369;-80
2023/08/15 03:13:10;;;;;;;0.70;0.50;;;14.10;1.00;;;;;;5067697;28;20048;-81
2023/08/15 03:15:37;;;;;;;0.63;0.35;;;14.00;1.00;;;;;;5069007;28;20060;-80
2023/08/15 03:18:04;;;;;;;0.30;0.30;;;14.00;1.00;;;;;;5067550;28;20071;-81
2023/08/15 03:20:31;;;;;;;1.10;0.50;;;14.00;1.00;;;;;;5068982;28;20084;-80
2023/08/15 03:22:58;;;;;;;0.30;0.20;;;14.00;1.00;;;;;;5068092;28;20101;-80
2023/08/15 03:25:24;;;;;;;0.40;0.38;;;14.00;1.00;;;;;;5067711;28;20427;-80
2023/08/15 03:27:51;;;;;;;0.30;0.28;;;13.90;1.00;;;;;;5049021;28;20496;-80
2023/08/15 03:30:18;;;;;;;1.38;0.40;;;13.90;1.00;;;;;;5034622;28;20060;-80
2023/08/15 03:32:45;;;;;;;0.65;0.60;;;13.90;1.00;;;;;;5068205;28;20044;-81
2023/08/15 03:35:11;;;;;;;0.50;0.30;;;13.90;1.00;;;;;;5067009;28;20428;-80
2023/08/15 03:37:38;;;;;;;0.90;0.30;;;13.90;1.00;;;;;;5067633;28;20056;-80
2023/08/15 03:40:06;;;;;;;0.52;0.30;;;13.80;1.00;;;;;;5050599;28;20545;-81
2023/08/15 03:42:32;;;;;;;1.05;0.38;;;13.90;1.00;;;;;;5049142;28;20415;-81
2023/08/15 03:45:00;;;;;;;0.90;0.40;;;13.80;1.00;;;;;;5066975;28;20436;-80
2023/08/15 03:47:26;;;;;;;0.77;0.47;;;13.80;1.00;;;;;;5067760;28;20078;-81
2023/08/15 03:49:53;;;;;;;0.20;0.20;;;13.70;1.00;;;;;;5050705;28;20048;-78
2023/08/15 03:52:20;;;;;;;0.22;0.22;;;13.70;1.00;;;;;;5067213;28;20560;-80
2023/08/15 03:54:47;;;;;;;1.15;0.50;;;13.70;1.00;;;;;;5067260;28;20057;-80
2023/08/15 03:57:13;;;;;;;0.32;0.30;;;13.70;1.00;;;;;;5063927;28;20117;-81
2023/08/15 03:59:40;;;;;;;0.50;0.40;;;13.60;1.00;;;;;;5050612;28;20122;-80
2023/08/15 04:02:07;;;;;;;0.52;0.30;;;13.60;1.00;;;;;;5066637;28;20056;-80
2023/08/15 04:04:34;;;;;;;0.30;0.30;;;13.50;1.00;;;;;;5030112;28;20040;-80
2023/08/15 04:07:01;;;;;;;0.40;0.30;;;13.50;1.00;;;;;;5059654;28;20048;-80
2023/08/15 04:09:28;;;;;;;0.45;0.30;;;13.50;1.00;;;;;;5068015;28;20040;-80
2023/08/15 04:11:54;;;;;;;0.30;0.30;;;13.50;1.00;;;;;;5048286;28;20074;-80
2023/08/15 04:14:21;;;;;;;0.28;0.28;;;13.60;1.00;;;;;;5049113;28;20060;-81
2023/08/15 04:16:48;;;;;;;0.32;0.30;;;13.60;1.00;;;;;;5049614;28;20130;-80
2023/08/15 04:19:15;;;;;;;0.55;0.32;;;13.60;1.00;;;;;;5050233;28;20045;-80
2023/08/15 04:21:41;;;;;;;0.50;0.50;;;13.60;1.00;;;;;;5049134;28;20537;-80
2023/08/15 04:24:08;;;;;;;0.82;0.30;;;13.60;1.00;;;;;;5048983;28;20086;-80
2023/08/15 04:26:35;;;;;;;1.02;0.52;;;13.50;1.00;;;;;;5063823;28;20163;-81
2023/08/15 04:29:02;;;;;;;0.40;0.25;;;13.50;1.00;;;;;;5066292;28;20056;-80
2023/08/15 04:31:29;;;;;;;0.90;0.50;;;13.50;1.00;;;;;;5083064;28;20106;-80
2023/08/15 04:33:55;;;;;;;0.40;0.40;;;13.40;1.00;;;;;;5067225;28;20049;-80
2023/08/15 04:36:22;;;;;;;0.32;0.32;;;13.40;1.00;;;;;;5066435;28;20060;-80
2023/08/15 04:38:49;;;;;;;0.70;0.40;;;13.30;1.00;;;;;;5066669;28;20514;-80
2023/08/15 04:41:17;;;;;;;0.30;0.30;;;13.30;1.00;;;;;;5062328;28;20052;-79
2023/08/15 04:43:43;;;;;;;0.55;0.30;;;13.30;1.00;;;;;;5063464;28;20048;-80
2023/08/15 04:46:10;;;;;;;0.30;0.30;;;13.20;1.00;;;;;;5048936;28;20048;-80
2023/08/15 04:48:37;;;;;;;0.40;0.40;;;13.10;1.00;;;;;;5055428;28;20076;-80
2023/08/15 04:51:04;;;;;;;0.43;0.40;;;13.10;1.00;;;;;;5047795;28;20045;-80
2023/08/15 04:53:30;;;;;;;0.40;0.40;;;13.10;1.00;;;;;;5051277;28;20063;-80
2023/08/15 04:55:57;;;;;;;0.60;0.40;;;13.00;1.00;;;;;;5044867;28;20515;-81
2023/08/15 04:58:24;;;;;;;0.32;0.32;;;13.00;1.00;;;;;;5063655;28;20113;-81
2023/08/15 05:00:51;;;;;;;0.30;0.28;;;13.00;1.00;;;;;;5062249;28;20377;-80
2023/08/15 05:03:17;;;;;;;0.60;0.50;;;13.00;1.00;;;;;;5060564;28;20448;-79
2023/08/15 05:05:44;;;;;;;1.10;0.70;;;13.00;1.00;;;;;;5095700;28;20506;-80
2023/08/15 05:08:12;;;;;;;0.45;0.35;;;13.00;1.00;;;;;;5043194;28;20091;-79
2023/08/15 05:10:38;;;;;;;0.85;0.43;;;13.00;1.00;;;;;;5062398;28;20049;-80
2023/08/15 05:13:05;;;;;;;0.55;0.38;;;13.00;1.00;;;;;;5041110;28;20167;-81
2023/08/15 05:15:32;;;;;;;0.50;0.50;;;13.00;1.00;;;;;;5063793;28;20136;-80
2023/08/15 05:17:59;;;;;;;0.88;0.70;;;13.00;1.00;;;;;;5058014;28;20041;-78
2023/08/15 05:20:26;;;;;;;1.00;0.57;;;13.00;1.00;;;;;;5043416;28;20054;-79
2023/08/15 05:22:53;;;;;;;1.58;1.00;;;13.00;1.00;;;;;;5053285;28;20041;-79
2023/08/15 05:25:20;;;;;;;1.40;0.82;;;13.00;1.00;;;;;;5064957;28;20056;-81
2023/08/15 05:27:48;;;;;;;1.40;0.82;;;13.00;1.00;;;;;;5056184;28;20048;-78
2023/08/15 05:30:15;;;;;;;1.00;0.90;;;13.10;1.00;;;;;;5058002;28;20533;-80
2023/08/15 05:32:43;;;;;;;1.55;0.80;;;13.20;1.00;;;;;;5057159;28;20059;-81
2023/08/15 05:35:10;;;;;;;0.90;0.70;;;13.20;1.00;;;;;;5065525;28;20063;-81
2023/08/15 05:37:36;;;;;;;0.90;0.60;;;13.20;1.00;;;;;;5064684;28;20048;-82
2023/08/15 05:40:04;;;;;;;0.70;0.70;;;13.20;1.00;;;;;;5078277;28;20044;-80
2023/08/15 05:42:31;;;;;;;0.45;0.45;;;13.30;1.00;;;;;;5059202;28;20080;-80
2023/08/15 05:44:58;;;;;;;0.50;0.43;;;13.40;1.00;;;;;;5060769;28;20056;-78
2023/08/15 05:47:24;;;;;;;0.77;0.70;;;13.40;1.00;;;;;;5069257;28;20052;-80
2023/08/15 05:49:51;;;;;;;0.68;0.52;;;13.50;1.00;;;;;;5078393;28;20124;-80
2023/08/15 05:52:18;;;;;;;0.90;0.30;;;13.60;1.00;;;;;;5060698;28;20492;-80
2023/08/15 05:54:45;;;;;;;0.32;0.32;;;13.60;1.00;;;;;;5059284;28;20052;-80
2023/08/15 05:57:11;;;;;;;0.30;0.30;;;13.70;1.00;;;;;;5061568;28;20076;-80
2023/08/15 05:59:38;;;;;;;0.20;0.20;;;13.70;1.00;;;;;;5047234;28;20048;-80
2023/08/15 06:02:05;;;;;;;0.28;0.28;;;13.80;1.00;;;;;;5059119;28;20041;-80
2023/08/15 06:04:32;;;;;;;0.45;0.45;;;13.90;1.00;;;;;;5077380;28;20053;-79
2023/08/15 06:06:59;;;;;;;0.40;0.38;;;13.90;1.00;;;;;;5057956;28;20495;-80
2023/08/15 06:09:27;;;;;;;1.15;0.32;;;14.00;1.00;;;;;;5080767;28;20404;-81
2023/08/15 06:11:54;;;;;;;1.33;0.50;;;14.10;1.00;;;;;;5062511;28;20446;-81
2023/08/15 06:14:21;;;;;;;0.40;0.40;;;14.20;1.00;;;;;;5054417;28;20099;-81
2023/08/15 06:16:49;;;;;;;0.65;0.63;;;14.30;1.00;;;;;;5061744;28;20112;-82
2023/08/15 06:19:17;;;;;;;0.73;0.50;;;14.30;1.00;;;;;;5041667;28;20430;-81
2023/08/15 06:21:44;;;;;;;0.40;0.40;;;14.40;1.00;;;;;;5056394;28;20053;-79
2023/08/15 06:24:11;;;;;;;0.75;0.50;;;14.50;1.00;;;;;;5062451;28;20320;-79
2023/08/15 06:26:38;;;;;;;0.40;0.30;;;14.60;1.00;;;;;;5074386;28;20063;-77
2023/08/15 06:29:05;;;;;;;0.73;0.50;;;14.70;1.00;;;;;;5066867;28;20056;-80
2023/08/15 06:31:33;;;;;;;0.85;0.50;;;14.80;1.00;;;;;;5044928;28;20047;-81
2023/08/15 06:34:00;;;;;;;0.57;0.50;;;14.80;1.00;;;;;;5066782;28;20380;-80
2023/08/15 06:36:27;;;;;;;0.35;0.35;;;15.00;1.00;;;;;;5065810;28;20052;-80
2023/08/15 06:38:54;;;;;;;0.40;0.40;;;15.00;1.00;;;;;;5064228;28;20056;-80
2023/08/15 06:41:20;;;;;;;0.20;0.20;;;15.10;1.00;;;;;;5064796;28;20117;-79
2023/08/15 06:43:47;;;;;;;0.60;0.60;;;15.20;1.00;;;;;;5066418;28;20072;-79
2023/08/15 06:46:14;;;;;;;0.35;0.35;;;15.20;1.00;;;;;;5080751;28;20048;-79
2023/08/15 06:48:41;;;;;;;1.00;0.60;;;15.20;99.90;;;;;;5033504;28;20121;-80
2023/08/15 06:51:08;;;;;;;0.60;0.45;;;15.30;99.90;;;;;;5066784;28;20064;-79
2023/08/15 06:53:35;;;;;;;0.95;0.60;;;15.40;99.90;;;;;;5062400;28;20064;-80
2023/08/15 06:56:10;;;;;;;0.80;0.43;;;15.40;99.90;;;;;;5063825;28;20118;-79
2023/08/15 06:58:36;;;;;;;0.40;0.40;;;15.50;99.90;;;;;;5065640;28;20048;-79
2023/08/15 07:01:04;;;;;;;0.80;0.40;;;15.50;99.90;;;;;;5046909;28;20097;-80
2023/08/15 07:03:33;;;;;;;0.70;0.40;;;15.60;99.90;;;;;;5063372;28;20083;-79
2023/08/15 07:06:00;;;;;;;0.55;0.40;;;15.70;99.90;;;;;;5063629;28;20060;-80
2023/08/15 07:08:27;;;;;;;0.57;0.45;;;15.80;99.90;;;;;;5067325;28;20125;-79
2023/08/15 07:10:57;;;;;;;0.38;0.38;;;15.80;99.90;;;;;;5046920;28;20130;-79
2023/08/15 07:13:24;;;;;;;1.27;0.70;;;15.80;99.90;;;;;;5052501;28;20040;-80
2023/08/15 07:15:55;;;;;;;0.50;0.50;;;15.90;99.90;;;;;;5050450;28;20056;-80
2023/08/15 07:18:23;;;;;;;0.73;0.50;;;15.90;99.90;;;;;;5050638;28;20048;-80
2023/08/15 07:20:53;;;;;;;0.75;0.60;;;16.10;99.90;;;;;;5066760;28;20142;-79
2023/08/15 07:23:20;;;;;;;0.50;0.50;;;16.20;99.90;;;;;;5056323;28;20064;-80
2023/08/15 07:25:47;;;;;;;0.63;0.30;;;16.20;82.70;;;;;;5046435;28;20044;-80
2023/08/15 07:28:14;;;;;;;0.60;0.60;;;16.30;1.00;;;;;;5063271;28;20048;-80
2023/08/15 07:30:41;;;;;;;0.80;0.52;;;16.40;1.00;;;;;;5066732;28;20045;-80
2023/08/15 07:33:08;;;;;;;0.77;0.75;;;16.40;1.00;;;;;;5066237;28;20114;-80
2023/08/15 07:35:35;;;;;;;1.58;0.70;;;16.50;99.90;;;;;;5068220;28;20446;-79
2023/08/15 07:38:03;;;;;;;1.13;0.63;;;16.60;99.90;;;;;;5067428;28;20136;-80
2023/08/15 07:40:29;;;;;;;0.50;0.50;;;16.70;99.90;;;;;;5065921;28;20131;-80
2023/08/15 07:42:56;;;;;;;0.82;0.65;;;16.70;99.90;;;;;;5062774;28;20458;-80
2023/08/15 07:45:23;;;;;;;2.30;0.80;;;16.70;19.50;;;;;;5078372;28;20044;-81
2023/08/15 07:47:55;;;;;;;0.60;0.60;;;16.80;1.00;;;;;;5058071;28;20159;-81
2023/08/15 07:50:25;;;;;;;0.93;0.68;;;16.80;1.00;;;;;;5072765;28;20040;-81
2023/08/15 07:52:53;;;;;;;1.88;0.88;;;16.90;99.90;;;;;;5036829;28;20255;-80
2023/08/15 07:55:20;;;;;;;0.43;0.40;;;16.90;1.00;;;;;;5042197;28;20083;-79
2023/08/15 07:57:47;;;;;;;0.93;0.60;;;17.00;99.90;;;;;;5038173;28;20056;-80
2023/08/15 08:00:14;;;;;;;0.75;0.47;;;17.00;99.90;;;;;;5056155;28;20048;-80
2023/08/15 08:02:41;;;;;;;1.65;0.70;;;17.10;99.90;;;;;;5061662;28;20211;-88
2023/08/15 08:05:09;;;;;;;0.77;0.50;;;17.20;1.00;;;;;;5063867;28;20561;-88
2023/08/15 08:07:37;;;;;;;1.30;0.60;;;17.20;24.20;;;;;;5070974;28;20422;-88
2023/08/15 08:10:04;;;;;;;0.65;0.50;;;17.20;1.00;;;;;;5098646;28;20072;-80
2023/08/15 08:12:31;;;;;;;0.50;0.45;;;17.20;99.90;;;;;;5053848;28;20343;-86
2023/08/15 08:14:58;;;;;;;0.43;0.40;;;17.30;99.90;;;;;;5043299;28;20056;-82
2023/08/15 08:17:25;;;;;;;0.80;0.60;;;17.40;1.00;;;;;;5058791;28;20056;-83
2023/08/15 08:19:52;;;;;;;0.55;0.50;;;17.40;1.00;;;;;;5050569;28;20048;-82
2023/08/15 08:22:19;;;;;;;0.73;0.60;;;17.50;99.90;;;;;;5056561;28;20122;-82
2023/08/15 08:24:48;;;;;;;0.85;0.60;;;17.60;99.90;;;;;;5058109;28;20052;-81
2023/08/15 08:27:15;;;;;;;1.02;0.45;;;17.70;1.00;;;;;;5057301;28;20110;-81
2023/08/15 08:29:41;;;;;;;0.90;0.55;;;17.70;99.90;;;;;;5053657;28;20049;-83
2023/08/15 08:32:08;;;;;;;0.98;0.60;;;17.80;99.90;;;;;;5059549;28;20437;-82
2023/08/15 08:34:35;;;;;;;0.70;0.40;;;17.90;1.00;;;;;;5064759;28;20460;-82
2023/08/15 08:37:02;;;;;;;2.20;0.70;;;17.90;99.90;;;;;;5059776;28;20609;-82
2023/08/15 08:39:29;;;;;;;0.77;0.60;;;17.90;99.90;;;;;;5071467;28;20052;-82
2023/08/15 08:41:58;;;;;;;0.75;0.60;;;18.00;99.90;;;;;;5056233;28;20052;-82
2023/08/15 08:44:26;;;;;;;1.58;0.88;;;18.10;97.40;;;;;;5047125;28;20118;-82
2023/08/15 08:46:52;;;;;;;1.00;0.80;;;18.10;90.70;;;;;;5071194;28;20160;-81
2023/08/15 08:49:19;;;;;;;0.68;0.50;;;18.20;99.90;;;;;;5042996;28;20121;-82
2023/08/15 08:51:46;;;;;;;0.68;0.50;;;18.30;94.50;;;;;;5057873;28;20134;-83
2023/08/15 08:54:13;;;;;;;0.80;0.50;;;18.30;99.90;;;;;;5048143;28;20094;-81
2023/08/15 08:56:44;;;;;;;1.02;0.70;;;18.50;99.90;;;;;;5053565;28;20124;-83
2023/08/15 08:59:12;;;;;;;0.70;0.55;;;18.50;99.90;;;;;;5064244;28;20094;-81
2023/08/15 09:01:39;;;;;;;0.77;0.50;;;18.60;99.90;;;;;;5065083;28;20139;-81
2023/08/15 09:04:06;;;;;;;0.88;0.70;;;18.70;99.90;;;;;;5061460;28;20878;-81
2023/08/15 09:06:33;;;;;;;1.85;1.05;;;18.80;99.90;;;;;;5028190;28;20045;-81
2023/08/15 09:09:00;;;;;;;1.17;0.70;;;19.00;99.90;;;;;;5064012;28;20456;-82
2023/08/15 09:11:36;;;;;;;1.08;0.93;;;19.10;99.90;;;;;;5064379;28;20066;-81
2023/08/15 09:14:03;;;;;;;0.73;0.60;;;19.20;99.90;;;;;;5064813;28;20127;-81
2023/08/15 09:16:31;;;;;;;1.30;0.80;;;19.20;99.90;;;;;;5041519;28;20124;-81
2023/08/15 09:19:04;;;;;;;0.98;0.68;;;19.30;99.90;;;;;;5048039;28;20125;-81
2023/08/15 09:21:33;;;;;;;0.52;0.50;;;19.30;99.90;;;;;;5065203;28;20103;-81
2023/08/15 09:24:00;;;;;;;1.13;0.95;;;19.40;99.90;;;;;;5062254;28;20403;-81
2023/08/15 09:26:28;;;;;;;1.00;0.60;;;19.40;99.90;;;;;;5042286;28;20140;-81
2023/08/15 09:28:54;;;;;;;1.20;0.60;;;19.50;99.90;;;;;;5029255;28;20055;-81
2023/08/15 09:31:21;;;;;;;0.73;0.43;;;19.60;99.90;;;;;;5047515;28;20049;-81
2023/08/15 09:33:48;;;;;;;0.77;0.60;;;19.70;99.90;;;;;;5064035;28;20123;-81
2023/08/15 09:36:15;;;;;;;2.10;0.63;;;19.80;99.90;;;;;;5065516;28;20098;-83
2023/08/15 09:38:42;;;;;;;1.23;0.70;;;19.80;92.80;;;;;;5065650;28;20484;-82
2023/08/15 09:41:12;;;;;;;1.05;0.50;;;19.80;91.20;;;;;;5063668;28;20052;-82
2023/08/15 09:43:51;;;;;;;0.50;0.50;;;19.80;80.50;;;;;;5064593;28;20102;-82
2023/08/15 09:46:18;;;;;;;0.90;0.50;;;19.80;82.40;;;;;;5062385;28;20185;-81
2023/08/15 09:48:49;;;;;;;0.73;0.40;;;19.90;86.70;;;;;;5061473;28;20083;-81
2023/08/15 09:51:17;;;;;;;0.50;0.50;;;20.00;82.50;;;;;;5060609;28;20048;-81
2023/08/15 09:53:44;;;;;;;1.00;0.60;;;20.00;76.10;;;;;;5064559;28;20057;-81
2023/08/15 09:56:11;;;;;;;1.02;0.60;;;20.10;69.30;;;;;;5062135;28;20049;-81
2023/08/15 09:58:38;;;;;;;0.75;0.47;;;20.10;72.90;;;;;;5031142;28;20053;-80
2023/08/15 10:01:08;;;;;;;0.75;0.50;;;20.10;71.10;;;;;;5064768;28;20128;-82
2023/08/15 10:03:38;;;;;;;0.63;0.57;;;20.20;66.00;;;;;;5047030;28;20060;-82
2023/08/15 10:06:07;;;;;;;0.77;0.60;;;20.30;66.30;;;;;;5047009;28;20048;-82
2023/08/15 10:08:38;;;;;;;0.98;0.80;;;20.40;67.10;;;;;;5032564;28;20052;-82
2023/08/15 10:11:09;;;;;;;0.45;0.45;;;20.60;66.80;;;;;;5062388;28;20098;-81
2023/08/15 10:13:37;;;;;;;0.40;0.40;;;20.70;65.90;;;;;;5065362;28;20048;-82
2023/08/15 10:16:08;;;;;;;0.43;0.40;;;20.80;62.00;;;;;;5064742;28;20052;-80
2023/08/15 10:18:35;;;;;;;0.70;0.40;;;20.80;55.80;;;;;;5064204;28;20140;-80
2023/08/15 10:21:02;;;;;;;1.02;0.57;;;21.00;53.20;;;;;;5064874;28;20484;-82
2023/08/15 10:23:30;;;;;;;0.30;0.30;;;20.90;51.90;;;;;;5063932;28;20048;-81
2023/08/15 10:25:57;;;;;;;0.50;0.47;;;21.00;47.00;;;;;;5061362;28;20447;-84
2023/08/15 10:28:28;;;;;;;1.48;0.55;;;21.00;49.50;;;;;;5044635;28;20056;-83
2023/08/15 10:30:55;;;;;;;1.55;0.70;;;21.00;53.80;;;;;;5064009;28;20048;-82
2023/08/15 10:33:24;;;;;;;0.98;0.63;;;21.20;52.80;;;;;;5063816;28;20136;-82
2023/08/15 10:35:54;;;;;;;0.40;0.40;;;21.40;48.70;;;;;;5063407;28;20459;-82
2023/08/15 10:38:28;;;;;;;0.82;0.30;;;21.60;46.20;;;;;;5064536;28;20147;-83
2023/08/15 10:41:02;;;;;;;1.23;0.60;;;21.70;38.90;;;;;;5062889;28;20648;-82
2023/08/15 10:43:29;;;;;;;0.20;0.20;;;21.70;40.20;;;;;;5063450;28;20059;-83
2023/08/15 10:45:58;;;;;;;0.68;0.40;;;21.80;41.40;;;;;;5063444;28;20118;-82
2023/08/15 10:48:55;;;;;;;0.93;0.40;;;21.80;40.50;;;;;;5063435;28;20052;-83
2023/08/15 10:51:31;;;;;;;0.80;0.50;;;21.60;40.10;;;;;;5048977;28;20148;-82
2023/08/15 10:54:06;;;;;;;0.60;0.60;;;21.50;35.80;;;;;;5063782;28;20049;-82
2023/08/15 10:56:34;;;;;;;1.17;0.68;;;21.60;35.00;;;;;;5061161;28;20084;-83
2023/08/15 10:59:05;;;;;;;0.30;0.30;;;21.60;31.00;;;;;;5027978;28;20071;-82
2023/08/15 11:01:32;;;;;;;0.93;0.50;;;21.80;29.50;;;;;;5044781;28;20048;-82
2023/08/15 11:03:59;;;;;;;0.88;0.50;;;22.10;27.00;;;;;;5049520;28;20486;-82
2023/08/15 11:06:28;;;;;;;0.57;0.30;;;22.40;28.50;;;;;;5063730;28;20048;-83
2023/08/15 11:08:56;;;;;;;0.50;0.47;;;22.70;29.00;;;;;;5047480;28;20059;-83
2023/08/15 11:11:23;;;;;;;0.88;0.30;;;22.80;26.60;;;;;;5065206;28;20513;-82
2023/08/15 11:13:52;;;;;;;0.40;0.32;;;23.00;27.60;;;;;;5050364;28;20048;-83
2023/08/15 11:16:20;;;;;;;0.40;0.32;;;23.00;27.50;;;;;;5068181;28;20130;-82
2023/08/15 11:18:47;;;;;;;0.20;0.20;;;23.00;27.00;;;;;;5066963;28;20072;-82
2023/08/15 11:21:16;;;;;;;0.30;0.30;;;22.70;25.30;;;;;;5050018;28;20055;-82
2023/08/15 11:23:43;;;;;;;1.23;0.40;;;22.50;22.20;;;;;;5064468;28;20052;-83
2023/08/15 11:26:14;;;;;;;0.20;0.20;;;22.30;21.90;;;;;;5061329;28;20123;-82
2023/08/15 11:28:41;;;;;;;0.60;0.40;;;22.30;20.00;;;;;;5064836;28;20056;-81
2023/08/15 11:31:09;;;;;;;0.28;0.28;;;22.80;24.00;;;;;;5062548;28;20105;-82
2023/08/15 11:33:51;;;;;;;0.52;0.40;;;23.40;25.20;;;;;;5065575;28;20116;-83
2023/08/15 11:36:19;;;;;;;0.55;0.30;;;23.50;22.50;;;;;;5061170;28;20052;-84
2023/08/15 11:38:46;;;;;;;0.43;0.30;;;23.40;22.10;;;;;;5041147;28;20408;-82
2023/08/15 11:41:13;;;;;;;0.35;0.30;;;23.20;22.20;;;;;;5055780;28;20601;-81
2023/08/15 11:43:40;;;;;;;0.40;0.30;;;23.10;19.80;;;;;;5075337;28;20048;-83
2023/08/15 11:46:07;;;;;;;0.60;0.30;;;22.90;19.00;;;;;;5046591;28;20130;-83
2023/08/15 11:48:34;;;;;;;0.38;0.30;;;22.80;16.80;;;;;;5058885;28;20238;-83
2023/08/15 11:51:01;;;;;;;0.30;0.30;;;22.70;14.10;;;;;;5040775;28;20060;-81
2023/08/15 11:53:28;;;;;;;0.80;0.45;;;22.60;13.00;;;;;;5058822;28;20508;-82
2023/08/15 11:55:54;;;;;;;0.30;0.30;;;23.30;17.10;;;;;;5060779;28;20048;-81
2023/08/15 11:58:25;;;;;;;0.30;0.30;;;24.00;16.90;;;;;;5057644;28;20059;-83
2023/08/15 12:00:57;;;;;;;0.50;0.50;;;24.60;16.00;;;;;;5068661;28;20072;-83
2023/08/15 12:03:24;;;;;;;0.80;0.50;;;25.00;15.80;;;;;;5059585;28;20048;-82
2023/08/15 12:05:55;;;;;;;0.93;0.50;;;25.60;16.00;;;;;;5058429;28;20088;-81
2023/08/15 12:08:25;;;;;;;0.95;0.70;;;25.90;18.00;;;;;;5059629;28;20145;-82
2023/08/15 12:10:53;;;;;;;1.13;0.60;;;26.20;14.20;;;;;;5056865;28;20133;-81
2023/08/15 12:13:47;;;;;;;0.47;0.38;;;25.60;7.50;;;;;;5065034;28;20049;-83
2023/08/15 12:16:14;;;;;;;0.68;0.40;;;24.90;4.40;;;;;;5051374;28;20078;-82
2023/08/15 12:18:42;;;;;;;0.52;0.40;;;24.40;1.80;;;;;;5057031;28;20060;-82
2023/08/15 12:21:12;;;;;;;0.38;0.35;;;24.10;1.00;;;;;;5041355;28;20526;-81
2023/08/15 12:23:41;;;;;;;0.40;0.40;;;24.00;1.60;;;;;;5054359;28;20045;-83
2023/08/15 12:26:08;;;;;;;1.63;0.75;;;24.80;2.30;;;;;;5059138;28;20052;-82
2023/08/15 12:28:38;;;;;;;0.50;0.50;;;25.60;3.60;;;;;;5060950;28;20112;-83
2023/08/15 12:31:05;;;;;;;1.80;0.70;;;26.40;3.40;;;;;;5076005;28;20139;-81
2023/08/15 12:33:36;;;;;;;0.30;0.30;;;27.10;1.00;;;;;;5075237;28;20055;-81
2023/08/15 12:36:06;;;;;;;0.68;0.43;;;27.30;1.00;;;;;;5049560;28;20049;-82
2023/08/15 12:38:36;;;;;;;0.40;0.40;;;27.60;1.00;;;;;;5027338;28;20116;-82
2023/08/15 12:41:03;;;;;;;0.70;0.50;;;27.80;1.00;;;;;;5058827;28;20060;-80
2023/08/15 12:43:31;;;;;;;0.88;0.70;;;27.30;1.00;;;;;;5059575;28;20116;-83
2023/08/15 12:45:58;;;;;;;0.30;0.30;;;27.30;1.00;;;;;;5075929;28;20048;-82
2023/08/15 12:48:25;;;;;;;0.40;0.40;;;27.10;1.00;;;;;;5075528;28;20418;-83
2023/08/15 12:50:53;;;;;;;0.82;0.47;;;27.20;1.00;;;;;;5061317;28;20449;-83
2023/08/15 12:53:20;;;;;;;0.60;0.40;;;27.20;1.00;;;;;;5059169;28;20098;-83
2023/08/15 12:55:47;;;;;;;0.35;0.35;;;27.80;1.00;;;;;;5055639;28;20542;-83